Time;durP1;ratioP1;P1;durP2;ratioP2;P2;SDS_P1;SDS_P2;PMS_P1;PMS_P2;Temp;Humidity;BMP_temperature;BMP_pressure;BME280_temperature;BME280_humidity;BME280_pressure;Samples;Min_cycle;Max_cycle;Signal;HPM_P1;HPM_P2
2023/06/10 00:02:01;;;;;;;;;;;;;;;;;;4861184;29;2134;-61
2023/06/10 00:04:28;;;;;;;;;;;;;;;;;;4861123;29;1998;-55
2023/06/10 00:06:57;;;;;;;;;;;;;;;;;;4860955;29;2003;-59
2023/06/10 00:09:24;;;;;;;;;;;;;;;;;;4861183;29;2078;-59
2023/06/10 00:11:51;;;;;;;;;;;;;;;;;;4860811;29;2169;-57
2023/06/10 00:14:19;;;;;;;;;;;;;;;;;;4860997;29;2001;-57
2023/06/10 00:16:46;;;;;;;;;;;;;;;;;;4860339;29;2037;-57
2023/06/10 00:19:15;;;;;;;;;;;;;;;;;;4860796;29;2376;-61
2023/06/10 00:21:44;;;;;;;;;;;;;;;;;;4860794;29;2154;-58
2023/06/10 00:24:13;;;;;;;;;;;;;;;;;;4860565;29;2349;-56
2023/06/10 00:26:41;;;;;;;;;;;;;;;;;;4860932;29;2048;-60
2023/06/10 00:29:10;;;;;;;;;;;;;;;;;;4860629;29;2021;-53
2023/06/10 00:31:37;;;;;;;;;;;;;;;;;;4860628;29;2050;-58
2023/06/10 00:34:07;;;;;;;;;;;;;;;;;;4860577;29;2094;-55
2023/06/10 00:36:35;;;;;;;;;;;;;;;;;;4859232;29;2261;-61
2023/06/10 00:39:04;;;;;;;;;;;;;;;;;;4860652;29;2017;-58
2023/06/10 00:41:33;;;;;;;;;;;;;;;;;;4877563;29;1924;-58
2023/06/10 00:44:01;;;;;;;;;;;;;;;;;;4893478;29;2089;-59
2023/06/10 00:46:28;;;;;;;;;;;;;;;;;;4878963;29;1998;-60
2023/06/10 00:48:56;;;;;;;;;;;;;;;;;;4893067;29;2258;-55
2023/06/10 00:51:23;;;;;;;;;;;;;;;;;;4893247;29;1981;-61
2023/06/10 00:53:52;;;;;;;;;;;;;;;;;;4891978;29;1918;-57
2023/06/10 00:56:20;;;;;;;;;;;;;;;;;;4874753;29;2209;-57
2023/06/10 00:58:47;;;;;;;;;;;;;;;;;;4860025;29;1980;-59
2023/06/10 01:01:14;;;;;;;;;;;;;;;;;;4868091;29;1943;-61
2023/06/10 01:03:42;;;;;;;;;;;;;;;;;;4860161;29;1983;-60
2023/06/10 01:06:17;;;;;;;;;;;;;;;;;;4873927;29;2199;-54
2023/06/10 01:08:57;;;;;;;;;;;;;;;;;;4859888;29;2209;-61
2023/06/10 01:11:28;;;;;;;;;;;;;;;;;;4859773;29;2106;-57
2023/06/10 01:13:55;;;;;;;;;;;;;;;;;;4874019;29;1995;-60
2023/06/10 01:16:23;;;;;;;;;;;;;;;;;;4877005;29;2095;-61
2023/06/10 01:18:52;;;;;;;;;;;;;;;;;;4878165;29;2089;-61
2023/06/10 01:21:21;;;;;;;;;;;;;;;;;;4892329;29;1985;-55
2023/06/10 01:23:51;;;;;;;;;;;;;;;;;;4877974;29;2492;-57
2023/06/10 01:26:22;;;;;;;;;;;;;;;;;;4878214;29;2138;-54
2023/06/10 01:28:54;;;;;;;;;;;;;;;;;;4878075;29;2359;-61
2023/06/10 01:31:33;;;;;;;;;;;;;;;;;;4877905;29;2242;-57
2023/06/10 01:34:04;;;;;;;;;;;;;;;;;;4860963;29;2649;-54
2023/06/10 01:36:33;;;;;;;;;;;;;;;;;;4859324;29;2088;-57
2023/06/10 01:39:01;;;;;;;;;;;;;;;;;;4859536;29;2268;-60
2023/06/10 01:41:29;;;;;;;;;;;;;;;;;;4859102;29;2131;-55
2023/06/10 01:43:56;;;;;;;;;;;;;;;;;;4862478;29;2045;-53
2023/06/10 01:46:23;;;;;;;;;;;;;;;;;;4859146;29;2684;-57
2023/06/10 01:48:51;;;;;;;;;;;;;;;;;;4872979;29;2386;-58
2023/06/10 01:51:18;;;;;;;;;;;;;;;;;;4859198;29;2467;-61
2023/06/10 01:53:45;;;;;;;;;;;;;;;;;;4864584;29;2207;-55
2023/06/10 01:56:19;;;;;;;;;;;;;;;;;;4892053;29;2304;-56
2023/06/10 01:58:46;;;;;;;;;;;;;;;;;;4877751;29;2080;-57
2023/06/10 02:01:14;;;;;;;;;;;;;;;;;;4889144;29;2261;-58
2023/06/10 02:03:41;;;;;;;;;;;;;;;;;;4858617;29;2440;-60
2023/06/10 02:06:08;;;;;;;;;;;;;;;;;;4858803;29;2037;-55
2023/06/10 02:08:35;;;;;;;;;;;;;;;;;;4858953;29;2278;-56
2023/06/10 02:11:03;;;;;;;;;;;;;;;;;;4858884;29;2194;-56
2023/06/10 02:13:30;;;;;;;;;;;;;;;;;;4873194;29;2031;-54
2023/06/10 02:15:58;;;;;;;;;;;;;;;;;;4858127;29;2399;-56
2023/06/10 02:18:28;;;;;;;;;;;;;;;;;;4858631;29;2010;-55
2023/06/10 02:20:55;;;;;;;;;;;;;;;;;;4858676;29;2471;-56
2023/06/10 02:23:23;;;;;;;;;;;;;;;;;;4858679;29;2104;-56
2023/06/10 02:25:50;;;;;;;;;;;;;;;;;;4858850;29;1994;-55
2023/06/10 02:28:17;;;;;;;;;;;;;;;;;;4858344;29;2201;-59
2023/06/10 02:30:46;;;;;;;;;;;;;;;;;;4858294;29;1996;-59
2023/06/10 02:33:14;;;;;;;;;;;;;;;;;;4857379;29;1784;-58
2023/06/10 02:35:43;;;;;;;;;;;;;;;;;;4872725;29;1966;-57
2023/06/10 02:38:10;;;;;;;;;;;;;;;;;;4858650;29;2181;-54
2023/06/10 02:40:37;;;;;;;;;;;;;;;;;;4872657;29;1983;-55
2023/06/10 02:43:04;;;;;;;;;;;;;;;;;;4858622;29;2050;-58
2023/06/10 02:45:34;;;;;;;;;;;;;;;;;;4860861;29;2040;-60
2023/06/10 02:48:03;;;;;;;;;;;;;;;;;;4872405;29;2154;-58
2023/06/10 02:50:31;;;;;;;;;;;;;;;;;;4858508;29;2029;-59
2023/06/10 02:53:16;;;;;;;;;;;;;;;;;;4875065;29;1979;-56
2023/06/10 02:55:48;;;;;;;;;;;;;;;;;;4876992;29;2278;-60
2023/06/10 02:58:17;;;;;;;;;;;;;;;;;;4872292;29;1891;-56
2023/06/10 03:00:45;;;;;;;;;;;;;;;;;;4871835;29;2110;-61
2023/06/10 03:03:13;;;;;;;;;;;;;;;;;;4871913;29;1987;-58
2023/06/10 03:05:56;;;;;;;;;;;;;;;;;;4872225;29;2017;-52
2023/06/10 03:08:25;;;;;;;;;;;;;;;;;;4871929;29;1971;-61
2023/06/10 03:10:53;;;;;;;;;;;;;;;;;;4872328;29;2034;-58
2023/06/10 03:13:21;;;;;;;;;;;;;;;;;;4871796;29;2015;-55
2023/06/10 03:15:48;;;;;;;;;;;;;;;;;;4858217;29;1939;-60
2023/06/10 03:18:20;;;;;;;;;;;;;;;;;;4871913;29;2035;-55
2023/06/10 03:20:47;;;;;;;;;;;;;;;;;;4858099;29;2196;-57
2023/06/10 03:23:16;;;;;;;;;;;;;;;;;;4871984;29;2052;-57
2023/06/10 03:25:43;;;;;;;;;;;;;;;;;;4861783;29;2169;-57
2023/06/10 03:28:14;;;;;;;;;;;;;;;;;;4876392;29;1982;-58
2023/06/10 03:30:42;;;;;;;;;;;;;;;;;;4890465;29;2055;-52
2023/06/10 03:33:10;;;;;;;;;;;;;;;;;;4876710;29;2070;-60
2023/06/10 03:35:39;;;;;;;;;;;;;;;;;;4890613;29;1980;-60
2023/06/10 03:38:06;;;;;;;;;;;;;;;;;;4890577;29;2117;-57
2023/06/10 03:40:34;;;;;;;;;;;;;;;;;;4890689;29;2077;-56
2023/06/10 03:43:01;;;;;;;;;;;;;;;;;;4890537;29;2041;-58
2023/06/10 03:45:30;;;;;;;;;;;;;;;;;;4876389;29;2002;-58
2023/06/10 03:47:58;;;;;;;;;;;;;;;;;;4875688;29;1986;-51
2023/06/10 03:50:31;;;;;;;;;;;;;;;;;;4890734;29;1928;-58
2023/06/10 03:52:59;;;;;;;;;;;;;;;;;;4890462;29;1932;-62
2023/06/10 03:55:27;;;;;;;;;;;;;;;;;;4889863;29;2328;-55
2023/06/10 03:57:55;;;;;;;;;;;;;;;;;;4890285;29;2161;-55
2023/06/10 04:00:23;;;;;;;;;;;;;;;;;;4856140;29;2297;-53
2023/06/10 04:02:51;;;;;;;;;;;;;;;;;;4857794;29;2014;-60
2023/06/10 04:05:30;;;;;;;;;;;;;;;;;;4871521;29;2309;-58
2023/06/10 04:07:57;;;;;;;;;;;;;;;;;;4857570;29;2058;-59
2023/06/10 04:10:25;;;;;;;;;;;;;;;;;;4857626;29;2096;-57
2023/06/10 04:12:53;;;;;;;;;;;;;;;;;;4875184;29;2173;-60
2023/06/10 04:15:23;;;;;;;;;;;;;;;;;;4864603;29;2163;-56
2023/06/10 04:17:52;;;;;;;;;;;;;;;;;;4879433;29;2253;-62
2023/06/10 04:20:22;;;;;;;;;;;;;;;;;;4878363;29;2169;-57
2023/06/10 04:22:50;;;;;;;;;;;;;;;;;;4893513;29;1864;-59
2023/06/10 04:25:19;;;;;;;;;;;;;;;;;;4878095;29;2131;-54
2023/06/10 04:27:48;;;;;;;;;;;;;;;;;;4893280;29;2176;-61
2023/06/10 04:30:16;;;;;;;;;;;;;;;;;;4893920;29;2044;-54
2023/06/10 04:32:44;;;;;;;;;;;;;;;;;;4893798;29;2214;-58
2023/06/10 04:35:15;;;;;;;;;;;;;;;;;;4893459;29;2092;-58
2023/06/10 04:37:44;;;;;;;;;;;;;;;;;;4893389;29;1971;-60
2023/06/10 04:40:11;;;;;;;;;;;;;;;;;;4893299;29;2481;-61
2023/06/10 04:42:39;;;;;;;;;;;;;;;;;;4893456;29;2045;-57
2023/06/10 04:45:08;;;;;;;;;;;;;;;;;;4877397;29;2342;-61
2023/06/10 04:47:35;;;;;;;;;;;;;;;;;;4893333;29;2447;-64
2023/06/10 04:50:05;;;;;;;;;;;;;;;;;;4893001;29;2137;-60
2023/06/10 04:52:33;;;;;;;;;;;;;;;;;;4878505;29;2064;-54
2023/06/10 04:55:05;;;;;;;;;;;;;;;;;;4890828;29;2110;-60
2023/06/10 04:57:33;;;;;;;;;;;;;;;;;;4860448;29;2112;-56
2023/06/10 05:00:00;;;;;;;;;;;;;;;;;;4860353;29;2135;-55
2023/06/10 05:02:27;;;;;;;;;;;;;;;;;;4874200;29;2339;-55
2023/06/10 05:04:56;;;;;;;;;;;;;;;;;;4860098;29;2340;-61
2023/06/10 05:07:23;;;;;;;;;;;;;;;;;;4868887;29;2187;-58
2023/06/10 05:09:50;;;;;;;;;;;;;;;;;;4877288;29;2279;-60
2023/06/10 05:12:18;;;;;;;;;;;;;;;;;;4878465;29;2358;-62
2023/06/10 05:14:46;;;;;;;;;;;;;;;;;;4878496;29;2229;-53
2023/06/10 05:17:13;;;;;;;;;;;;;;;;;;4892079;29;2359;-59
2023/06/10 05:19:41;;;;;;;;;;;;;;;;;;4878291;29;2533;-61
2023/06/10 05:22:09;;;;;;;;;;;;;;;;;;4878246;29;2002;-62
2023/06/10 05:24:36;;;;;;;;;;;;;;;;;;4877774;29;2505;-61
2023/06/10 05:27:03;;;;;;;;;;;;;;;;;;4878031;29;2130;-55
2023/06/10 05:29:30;;;;;;;;;;;;;;;;;;4878066;29;2272;-55
2023/06/10 05:32:02;;;;;;;;;;;;;;;;;;4877994;29;2149;-57
2023/06/10 05:34:30;;;;;;;;;;;;;;;;;;4878437;29;2307;-62
2023/06/10 05:36:58;;;;;;;;;;;;;;;;;;4877351;29;2342;-53
2023/06/10 05:39:25;;;;;;;;;;;;;;;;;;4860712;29;2113;-59
2023/06/10 05:41:52;;;;;;;;;;;;;;;;;;4858169;29;2310;-61
2023/06/10 05:44:19;;;;;;;;;;;;;;;;;;4861053;29;2080;-56
2023/06/10 05:46:47;;;;;;;;;;;;;;;;;;4878186;29;2535;-63
2023/06/10 05:49:16;;;;;;;;;;;;;;;;;;4877374;29;2330;-56
2023/06/10 05:51:44;;;;;;;;;;;;;;;;;;4877933;29;2261;-59
2023/06/10 05:54:11;;;;;;;;;;;;;;;;;;4877930;29;1939;-52
2023/06/10 05:56:38;;;;;;;;;;;;;;;;;;4891976;29;2401;-61
2023/06/10 05:59:05;;;;;;;;;;;;;;;;;;4877731;29;1907;-60
2023/06/10 06:01:33;;;;;;;;;;;;;;;;;;4891675;29;2306;-60
2023/06/10 06:04:00;;;;;;;;;;;;;;;;;;4877692;29;2012;-53
2023/06/10 06:06:27;;;;;;;;;;;;;;;;;;4876204;29;2375;-54
2023/06/10 06:08:54;;;;;;;;;;;;;;;;;;4874844;29;2170;-59
2023/06/10 06:11:22;;;;;;;;;;;;;;;;;;4877309;29;2170;-61
2023/06/10 06:13:49;;;;;;;;;;;;;;;;;;4891639;29;2164;-61
2023/06/10 06:16:19;;;;;;;;;;;;;;;;;;4858735;29;2080;-53
2023/06/10 06:18:46;;;;;;;;;;;;;;;;;;4858755;29;1969;-53
2023/06/10 06:21:14;;;;;;;;;;;;;;;;;;4859533;29;2084;-53
2023/06/10 06:23:41;;;;;;;;;;;;;;;;;;4858959;29;2177;-54
2023/06/10 06:26:08;;;;;;;;;;;;;;;;;;4875797;29;2120;-59
2023/06/10 06:28:35;;;;;;;;;;;;;;;;;;4877240;29;2000;-61
2023/06/10 06:31:03;;;;;;;;;;;;;;;;;;4876677;29;2151;-57
2023/06/10 06:33:30;;;;;;;;;;;;;;;;;;4876925;29;2302;-56
2023/06/10 06:35:57;;;;;;;;;;;;;;;;;;4876294;29;1972;-60
2023/06/10 06:38:24;;;;;;;;;;;;;;;;;;4876753;29;2141;-53
2023/06/10 06:40:52;;;;;;;;;;;;;;;;;;4877054;29;1934;-55
2023/06/10 06:43:19;;;;;;;;;;;;;;;;;;4876101;29;2244;-51
2023/06/10 06:46:05;;;;;;;;;;;;;;;;;;4877255;29;2211;-58
2023/06/10 06:48:32;;;;;;;;;;;;;;;;;;4874362;29;2095;-56
2023/06/10 06:51:00;;;;;;;;;;;;;;;;;;4876809;29;2140;-59
2023/06/10 06:53:27;;;;;;;;;;;;;;;;;;4876942;29;2205;-54
2023/06/10 06:55:59;;;;;;;;;;;;;;;;;;4888449;29;2108;-59
2023/06/10 06:58:26;;;;;;;;;;;;;;;;;;4873387;29;2113;-53
2023/06/10 07:00:53;;;;;;;;;;;;;;;;;;4876536;29;2476;-61
2023/06/10 07:03:21;;;;;;;;;;;;;;;;;;4875620;29;2390;-55
2023/06/10 07:05:49;;;;;;;;;;;;;;;;;;4876387;29;2053;-54
2023/06/10 07:08:16;;;;;;;;;;;;;;;;;;4876517;29;2163;-62
2023/06/10 07:10:43;;;;;;;;;;;;;;;;;;4876762;29;2026;-60
2023/06/10 07:13:13;;;;;;;;;;;;;;;;;;4875503;29;2434;-53
2023/06/10 07:15:41;;;;;;;;;;;;;;;;;;4875389;29;2144;-57
2023/06/10 07:18:09;;;;;;;;;;;;;;;;;;4857569;29;2280;-60
2023/06/10 07:20:36;;;;;;;;;;;;;;;;;;4857926;29;2125;-55
2023/06/10 07:23:03;;;;;;;;;;;;;;;;;;4857665;29;2225;-58
2023/06/10 07:25:30;;;;;;;;;;;;;;;;;;4857552;29;2091;-57
2023/06/10 07:27:58;;;;;;;;;;;;;;;;;;4871665;29;2116;-55
2023/06/10 07:30:25;;;;;;;;;;;;;;;;;;4858739;29;2560;-47
2023/06/10 07:32:55;;;;;;;;;;;;;;;;;;4857904;29;2089;-61
2023/06/10 07:35:23;;;;;;;;;;;;;;;;;;4857423;29;2095;-61
2023/06/10 07:37:50;;;;;;;;;;;;;;;;;;4857534;29;2009;-55
2023/06/10 07:40:18;;;;;;;;;;;;;;;;;;4857694;29;2092;-63
2023/06/10 07:42:45;;;;;;;;;;;;;;;;;;4857484;29;2330;-68
2023/06/10 07:45:12;;;;;;;;;;;;;;;;;;4857684;29;2140;-62
2023/06/10 07:47:39;;;;;;;;;;;;;;;;;;4875075;29;2363;-55
2023/06/10 07:50:07;;;;;;;;;;;;;;;;;;4861142;29;2201;-61
2023/06/10 07:52:34;;;;;;;;;;;;;;;;;;4861258;29;2163;-60
2023/06/10 07:55:04;;;;;;;;;;;;;;;;;;4878397;29;2478;-61
2023/06/10 07:57:36;;;;;;;;;;;;;;;;;;4879692;29;2042;-57
2023/06/10 08:00:04;;;;;;;;;;;;;;;;;;4861807;29;1988;-61
2023/06/10 08:02:38;;;;;;;;;;;;;;;;;;4879409;29;1959;-60
2023/06/10 08:05:06;;;;;;;;;;;;;;;;;;4879125;29;2109;-60
2023/06/10 08:07:33;;;;;;;;;;;;;;;;;;4878611;29;2054;-52
2023/06/10 08:10:00;;;;;;;;;;;;;;;;;;4878686;29;1954;-50
2023/06/10 08:12:28;;;;;;;;;;;;;;;;;;4878350;29;2189;-59
2023/06/10 08:14:55;;;;;;;;;;;;;;;;;;4878265;29;2240;-60
2023/06/10 08:17:23;;;;;;;;;;;;;;;;;;4878991;29;2061;-57
2023/06/10 08:19:51;;;;;;;;;;;;;;;;;;4879394;29;2336;-56
2023/06/10 08:22:18;;;;;;;;;;;;;;;;;;4879492;29;2047;-59
2023/06/10 08:24:46;;;;;;;;;;;;;;;;;;4878191;29;2376;-60
2023/06/10 08:27:15;;;;;;;;;;;;;;;;;;4879388;29;2227;-61
2023/06/10 08:29:42;;;;;;;;;;;;;;;;;;4879346;29;2156;-58
2023/06/10 08:32:11;;;;;;;;;;;;;;;;;;4879607;29;2258;-55
2023/06/10 08:34:39;;;;;;;;;;;;;;;;;;4877651;29;2180;-62
2023/06/10 08:37:06;;;;;;;;;;;;;;;;;;4879377;29;2401;-58
2023/06/10 08:39:34;;;;;;;;;;;;;;;;;;4879336;29;2060;-58
2023/06/10 08:42:13;;;;;;;;;;;;;;;;;;4879221;29;2378;-51
2023/06/10 08:44:41;;;;;;;;;;;;;;;;;;4879439;29;2145;-61
2023/06/10 08:47:18;;;;;;;;;;;;;;;;;;4879032;29;2300;-61
2023/06/10 08:49:46;;;;;;;;;;;;;;;;;;4878909;29;2333;-62
2023/06/10 08:52:17;;;;;;;;;;;;;;;;;;4879202;29;2526;-57
2023/06/10 08:54:58;;;;;;;;;;;;;;;;;;4882596;29;2025;-61
2023/06/10 08:57:26;;;;;;;;;;;;;;;;;;4892228;29;2274;-62
2023/06/10 08:59:54;;;;;;;;;;;;;;;;;;4878697;29;1987;-59
2023/06/10 09:02:22;;;;;;;;;;;;;;;;;;4878814;29;2317;-54
2023/06/10 09:04:50;;;;;;;;;;;;;;;;;;4878907;29;2022;-54
2023/06/10 09:07:17;;;;;;;;;;;;;;;;;;4878978;29;2092;-61
2023/06/10 09:09:45;;;;;;;;;;;;;;;;;;4878587;29;2279;-60
2023/06/10 09:12:13;;;;;;;;;;;;;;;;;;4878753;29;2100;-62
2023/06/10 09:14:41;;;;;;;;;;;;;;;;;;4878860;29;2308;-56
2023/06/10 09:17:09;;;;;;;;;;;;;;;;;;4878482;29;2069;-57
2023/06/10 09:19:38;;;;;;;;;;;;;;;;;;4879120;29;2369;-54
2023/06/10 09:22:05;;;;;;;;;;;;;;;;;;4878412;29;1988;-62
2023/06/10 09:24:33;;;;;;;;;;;;;;;;;;4878531;29;2073;-62
2023/06/10 09:27:07;;;;;;;;;;;;;;;;;;4878477;29;2210;-61
2023/06/10 09:29:48;;;;;;;;;;;;;;;;;;4878431;29;2114;-59
2023/06/10 09:32:17;;;;;;;;;;;;;;;;;;4878677;29;2035;-53
2023/06/10 09:34:45;;;;;;;;;;;;;;;;;;4878488;29;2081;-61
2023/06/10 09:37:13;;;;;;;;;;;;;;;;;;4871857;29;2237;-60
2023/06/10 09:39:40;;;;;;;;;;;;;;;;;;4859775;29;2066;-62
2023/06/10 09:42:18;;;;;;;;;;;;;;;;;;4859821;29;2075;-59
2023/06/10 09:44:51;;;;;;;;;;;;;;;;;;4859735;29;2187;-56
2023/06/10 09:47:22;;;;;;;;;;;;;;;;;;4859574;29;2048;-62
2023/06/10 09:49:53;;;;;;;;;;;;;;;;;;4878106;29;2280;-58
2023/06/10 09:52:27;;;;;;;;;;;;;;;;;;4878064;29;2134;-62
2023/06/10 09:55:01;;;;;;;;;;;;;;;;;;4880805;29;2065;-62
2023/06/10 09:57:41;;;;;;;;;;;;;;;;;;4878166;29;2139;-62
2023/06/10 10:00:10;;;;;;;;;;;;;;;;;;4878118;29;2081;-61
2023/06/10 10:02:48;;;;;;;;;;;;;;;;;;4877951;29;2032;-59
2023/06/10 10:05:16;;;;;;;;;;;;;;;;;;4877908;29;2070;-53
2023/06/10 10:07:44;;;;;;;;;;;;;;;;;;4878052;29;1993;-61
2023/06/10 10:10:12;;;;;;;;;;;;;;;;;;4877295;29;2117;-56
2023/06/10 10:12:40;;;;;;;;;;;;;;;;;;4877749;29;2134;-62
2023/06/10 10:15:41;;;;;;;;;;;;;;;;;;4876453;29;2019;-58
2023/06/10 10:46:41;;;;;;;;;;;;;;;;;;4877430;29;2027;-58
2023/06/10 10:49:11;;;;;;;;;;;;;;;;;;4876593;29;1989;-55
2023/06/10 10:51:54;;;;;;;;;;;;;;;;;;4890899;29;2041;-57
2023/06/10 10:54:28;;;;;;;;;;;;;;;;;;4879477;29;2057;-59
2023/06/10 10:57:14;;;;;;;;;;;;;;;;;;4876671;29;2311;-62
2023/06/10 10:59:44;;;;;;;;;;;;;;;;;;4876731;29;2376;-62
2023/06/10 11:02:16;;;;;;;;;;;;;;;;;;4876850;29;2196;-56
2023/06/10 11:04:45;;;;;;;;;;;;;;;;;;4877035;29;2159;-59
2023/06/10 11:07:16;;;;;;;;;;;;;;;;;;4876824;29;2188;-62
2023/06/10 11:10:02;;;;;;;;;;;;;;;;;;4876847;29;2022;-61
2023/06/10 11:12:49;;;;;;;;;;;;;;;;;;4876912;29;2245;-62
2023/06/10 11:15:20;;;;;;;;;;;;;;;;;;4875788;29;2159;-50
2023/06/10 11:18:06;;;;;;;;;;;;;;;;;;4877020;29;2195;-59
2023/06/10 11:20:48;;;;;;;;;;;;;;;;;;4878322;29;2079;-61
2023/06/10 11:23:26;;;;;;;;;;;;;;;;;;4882599;29;2095;-62
2023/06/10 11:26:11;;;;;;;;;;;;;;;;;;4883241;29;2098;-59
2023/06/10 11:28:39;;;;;;;;;;;;;;;;;;4882750;29;2466;-61
2023/06/10 11:31:07;;;;;;;;;;;;;;;;;;4883064;29;2131;-61
2023/06/10 11:33:38;;;;;;;;;;;;;;;;;;4868102;29;2394;-62
2023/06/10 11:36:06;;;;;;;;;;;;;;;;;;4864427;29;2122;-52
2023/06/10 11:38:34;;;;;;;;;;;;;;;;;;4864187;29;2250;-60
2023/06/10 11:41:02;;;;;;;;;;;;;;;;;;4865756;29;2176;-60
2023/06/10 11:43:30;;;;;;;;;;;;;;;;;;4864135;29;2119;-57
2023/06/10 11:45:57;;;;;;;;;;;;;;;;;;4863976;29;2247;-62
2023/06/10 11:48:28;;;;;;;;;;;;;;;;;;4864297;29;2107;-60
2023/06/10 11:50:55;;;;;;;;;;;;;;;;;;4864459;29;2374;-59
2023/06/10 11:53:23;;;;;;;;;;;;;;;;;;4882022;29;2108;-61
2023/06/10 11:55:50;;;;;;;;;;;;;;;;;;4883093;29;2029;-53
2023/06/10 11:58:20;;;;;;;;;;;;;;;;;;4882621;29;2387;-56
2023/06/10 12:00:53;;;;;;;;;;;;;;;;;;4882290;29;2415;-62
2023/06/10 12:03:22;;;;;;;;;;;;;;;;;;4882747;29;2246;-60
2023/06/10 12:05:57;;;;;;;;;;;;;;;;;;4882303;29;2166;-59
2023/06/10 12:08:24;;;;;;;;;;;;;;;;;;4882632;29;2433;-57
2023/06/10 12:10:52;;;;;;;;;;;;;;;;;;4882481;29;2157;-58
2023/06/10 12:13:19;;;;;;;;;;;;;;;;;;4882566;29;2463;-62
2023/06/10 12:15:47;;;;;;;;;;;;;;;;;;4882146;29;1826;-62
2023/06/10 12:18:18;;;;;;;;;;;;;;;;;;4882642;29;2032;-60
2023/06/10 12:20:46;;;;;;;;;;;;;;;;;;4882491;29;2030;-62
2023/06/10 12:23:13;;;;;;;;;;;;;;;;;;4882425;29;2202;-58
2023/06/10 12:25:59;;;;;;;;;;;;;;;;;;4882599;29;2016;-62
2023/06/10 12:28:27;;;;;;;;;;;;;;;;;;4870101;29;2128;-51
2023/06/10 12:31:07;;;;;;;;;;;;;;;;;;4863812;29;2041;-53
2023/06/10 12:33:35;;;;;;;;;;;;;;;;;;4861290;29;2005;-53
2023/06/10 12:36:02;;;;;;;;;;;;;;;;;;4860742;29;2012;-62
2023/06/10 12:38:31;;;;;;;;;;;;;;;;;;4860786;29;2522;-57
2023/06/10 12:41:02;;;;;;;;;;;;;;;;;;4860587;29;2093;-58
2023/06/10 12:43:30;;;;;;;;;;;;;;;;;;4860659;29;2240;-61
2023/06/10 12:46:08;;;;;;;;;;;;;;;;;;4860723;29;1981;-53
2023/06/10 12:48:36;;;;;;;;;;;;;;;;;;4860314;29;2548;-62
2023/06/10 12:51:05;;;;;;;;;;;;;;;;;;4860846;29;2081;-62
2023/06/10 12:53:32;;;;;;;;;;;;;;;;;;4864708;29;2067;-57
2023/06/10 12:56:02;;;;;;;;;;;;;;;;;;4879138;29;2199;-59
2023/06/10 12:58:29;;;;;;;;;;;;;;;;;;4878775;29;2354;-58
2023/06/10 13:00:57;;;;;;;;;;;;;;;;;;4879098;29;1993;-58
2023/06/10 13:03:24;;;;;;;;;;;;;;;;;;4879251;29;2213;-59
2023/06/10 13:05:51;;;;;;;;;;;;;;;;;;4878733;29;2147;-59
2023/06/10 13:08:19;;;;;;;;;;;;;;;;;;4893288;29;2038;-61
2023/06/10 13:10:48;;;;;;;;;;;;;;;;;;4878647;29;2124;-61
2023/06/10 13:13:16;;;;;;;;;;;;;;;;;;4860329;29;2182;-56
2023/06/10 13:15:43;;;;;;;;;;;;;;;;;;4860281;29;2165;-62
2023/06/10 13:18:10;;;;;;;;;;;;;;;;;;4878719;29;2383;-57
2023/06/10 13:20:38;;;;;;;;;;;;;;;;;;4878546;29;2188;-57
2023/06/10 13:23:05;;;;;;;;;;;;;;;;;;4878432;29;2207;-60
2023/06/10 13:25:33;;;;;;;;;;;;;;;;;;4878415;29;2473;-60
2023/06/10 13:28:01;;;;;;;;;;;;;;;;;;4878300;29;1979;-55
2023/06/10 13:30:28;;;;;;;;;;;;;;;;;;4878645;29;2259;-60
2023/06/10 13:32:56;;;;;;;;;;;;;;;;;;4878495;29;2103;-56
2023/06/10 13:35:23;;;;;;;;;;;;;;;;;;4878370;29;2053;-55
2023/06/10 13:37:50;;;;;;;;;;;;;;;;;;4892367;29;2037;-58
2023/06/10 13:40:19;;;;;;;;;;;;;;;;;;4877899;29;2102;-62
2023/06/10 13:42:50;;;;;;;;;;;;;;;;;;4878186;29;2275;-60
2023/06/10 13:45:18;;;;;;;;;;;;;;;;;;4876301;29;2211;-60
2023/06/10 13:47:45;;;;;;;;;;;;;;;;;;4878225;29;2283;-56
2023/06/10 13:50:13;;;;;;;;;;;;;;;;;;4877972;29;2158;-52
2023/06/10 13:52:40;;;;;;;;;;;;;;;;;;4878098;29;2002;-57
2023/06/10 13:55:08;;;;;;;;;;;;;;;;;;4878022;29;2354;-57
2023/06/10 13:57:35;;;;;;;;;;;;;;;;;;4879731;29;2115;-54
2023/06/10 14:00:03;;;;;;;;;;;;;;;;;;4877593;29;2286;-53
2023/06/10 14:02:34;;;;;;;;;;;;;;;;;;4891621;29;2224;-59
2023/06/10 14:05:02;;;;;;;;;;;;;;;;;;4878128;29;2267;-57
2023/06/10 14:07:29;;;;;;;;;;;;;;;;;;4877761;29;1977;-57
2023/06/10 14:09:56;;;;;;;;;;;;;;;;;;4877788;29;2167;-59
2023/06/10 14:12:24;;;;;;;;;;;;;;;;;;4877545;29;2546;-60
2023/06/10 14:14:51;;;;;;;;;;;;;;;;;;4877702;29;2161;-54
2023/06/10 14:17:18;;;;;;;;;;;;;;;;;;4877562;29;2272;-58
2023/06/10 14:19:46;;;;;;;;;;;;;;;;;;4877738;29;2160;-55
2023/06/10 14:22:13;;;;;;;;;;;;;;;;;;4877476;29;2425;-59
2023/06/10 14:24:40;;;;;;;;;;;;;;;;;;4877589;29;2177;-61
2023/06/10 14:27:07;;;;;;;;;;;;;;;;;;4877425;29;2147;-56
2023/06/10 14:29:35;;;;;;;;;;;;;;;;;;4877436;29;2268;-60
2023/06/10 14:32:02;;;;;;;;;;;;;;;;;;4877321;29;2316;-61
2023/06/10 14:34:33;;;;;;;;;;;;;;;;;;4877640;29;2395;-61
2023/06/10 14:37:03;;;;;;;;;;;;;;;;;;4877266;29;2309;-56
2023/06/10 14:39:30;;;;;;;;;;;;;;;;;;4877664;29;2414;-53
2023/06/10 14:41:58;;;;;;;;;;;;;;;;;;4877200;29;2083;-60
2023/06/10 14:44:25;;;;;;;;;;;;;;;;;;4877245;29;2021;-55
2023/06/10 14:46:52;;;;;;;;;;;;;;;;;;4877486;29;2161;-61
2023/06/10 14:49:20;;;;;;;;;;;;;;;;;;4876662;29;2088;-61
2023/06/10 14:51:49;;;;;;;;;;;;;;;;;;4877203;29;2089;-62
2023/06/10 14:54:17;;;;;;;;;;;;;;;;;;4877794;29;2008;-58
2023/06/10 14:56:44;;;;;;;;;;;;;;;;;;4890564;29;2035;-62
2023/06/10 14:59:11;;;;;;;;;;;;;;;;;;4877057;29;2025;-54
2023/06/10 15:01:39;;;;;;;;;;;;;;;;;;4876682;29;2199;-54
2023/06/10 15:04:06;;;;;;;;;;;;;;;;;;4877260;29;2277;-55
2023/06/10 15:06:34;;;;;;;;;;;;;;;;;;4876812;29;2127;-58
2023/06/10 15:09:02;;;;;;;;;;;;;;;;;;4877292;29;2169;-55
2023/06/10 15:11:29;;;;;;;;;;;;;;;;;;4876744;29;1952;-54
2023/06/10 15:13:57;;;;;;;;;;;;;;;;;;4870508;29;2104;-50
2023/06/10 15:16:25;;;;;;;;;;;;;;;;;;4876535;29;2199;-55
2023/06/10 15:18:52;;;;;;;;;;;;;;;;;;4876814;29;2125;-53
2023/06/10 15:21:19;;;;;;;;;;;;;;;;;;4876880;29;2006;-58
2023/06/10 15:23:47;;;;;;;;;;;;;;;;;;4876415;29;2349;-53
2023/06/10 15:26:14;;;;;;;;;;;;;;;;;;4876768;29;2127;-53
2023/06/10 15:28:42;;;;;;;;;;;;;;;;;;4876719;29;2080;-52
2023/06/10 15:31:09;;;;;;;;;;;;;;;;;;4876424;29;2683;-53
2023/06/10 15:33:36;;;;;;;;;;;;;;;;;;4877109;29;2264;-54
2023/06/10 15:36:05;;;;;;;;;;;;;;;;;;4876717;29;2018;-54
2023/06/10 15:38:33;;;;;;;;;;;;;;;;;;4876514;29;2111;-52
2023/06/10 15:41:01;;;;;;;;;;;;;;;;;;4876349;29;2019;-54
2023/06/10 15:43:30;;;;;;;;;;;;;;;;;;4876572;29;2194;-53
2023/06/10 15:45:57;;;;;;;;;;;;;;;;;;4876673;29;2244;-53
2023/06/10 15:48:25;;;;;;;;;;;;;;;;;;4876382;29;2386;-51
2023/06/10 15:50:52;;;;;;;;;;;;;;;;;;4876538;29;2158;-57
2023/06/10 15:53:19;;;;;;;;;;;;;;;;;;4876555;29;1951;-57
2023/06/10 15:55:47;;;;;;;;;;;;;;;;;;4876637;29;2251;-53
2023/06/10 15:58:14;;;;;;;;;;;;;;;;;;4876120;29;2115;-56
2023/06/10 16:00:41;;;;;;;;;;;;;;;;;;4876705;29;2262;-53
2023/06/10 16:03:09;;;;;;;;;;;;;;;;;;4876672;29;2007;-54
2023/06/10 16:05:36;;;;;;;;;;;;;;;;;;4876404;29;2077;-54
2023/06/10 16:08:04;;;;;;;;;;;;;;;;;;4878871;29;2063;-52
2023/06/10 16:10:31;;;;;;;;;;;;;;;;;;4879426;29;2256;-59
2023/06/10 16:12:59;;;;;;;;;;;;;;;;;;4880071;29;2105;-52
2023/06/10 16:15:26;;;;;;;;;;;;;;;;;;4879727;29;2184;-54
2023/06/10 16:17:55;;;;;;;;;;;;;;;;;;4864969;29;2482;-52
2023/06/10 16:20:22;;;;;;;;;;;;;;;;;;4861285;29;2380;-55
2023/06/10 16:22:50;;;;;;;;;;;;;;;;;;4878421;29;2278;-57
2023/06/10 16:25:17;;;;;;;;;;;;;;;;;;4879592;29;2305;-54
2023/06/10 16:27:44;;;;;;;;;;;;;;;;;;4879387;29;2221;-57
2023/06/10 16:30:13;;;;;;;;;;;;;;;;;;4879735;29;2436;-50
2023/06/10 16:32:41;;;;;;;;;;;;;;;;;;4879520;29;2014;-57
2023/06/10 16:35:08;;;;;;;;;;;;;;;;;;4879521;29;2030;-61
2023/06/10 16:37:36;;;;;;;;;;;;;;;;;;4879421;29;2082;-62
2023/06/10 16:40:03;;;;;;;;;;;;;;;;;;4879351;29;2059;-54
2023/06/10 16:42:31;;;;;;;;;;;;;;;;;;4879465;29;2504;-58
2023/06/10 16:44:58;;;;;;;;;;;;;;;;;;4879183;29;2276;-57
2023/06/10 16:47:25;;;;;;;;;;;;;;;;;;4879421;29;2308;-61
2023/06/10 16:49:52;;;;;;;;;;;;;;;;;;4879065;29;2434;-61
2023/06/10 16:52:19;;;;;;;;;;;;;;;;;;4879159;29;2150;-55
2023/06/10 16:54:47;;;;;;;;;;;;;;;;;;4883677;29;2317;-54
2023/06/10 16:57:14;;;;;;;;;;;;;;;;;;4879152;29;2201;-54
2023/06/10 16:59:41;;;;;;;;;;;;;;;;;;4879350;29;2406;-52
2023/06/10 17:02:11;;;;;;;;;;;;;;;;;;4879061;29;2432;-54
2023/06/10 17:04:39;;;;;;;;;;;;;;;;;;4879132;29;2452;-54
2023/06/10 17:07:06;;;;;;;;;;;;;;;;;;4878738;29;2331;-53
2023/06/10 17:09:33;;;;;;;;;;;;;;;;;;4878916;29;2230;-56
2023/06/10 17:12:01;;;;;;;;;;;;;;;;;;4878593;29;2292;-54
2023/06/10 17:14:28;;;;;;;;;;;;;;;;;;4878492;29;2270;-55
2023/06/10 17:16:55;;;;;;;;;;;;;;;;;;4878900;29;2369;-55
2023/06/10 17:19:23;;;;;;;;;;;;;;;;;;4877762;29;2067;-54
2023/06/10 17:21:50;;;;;;;;;;;;;;;;;;4878345;29;2468;-55
2023/06/10 17:24:17;;;;;;;;;;;;;;;;;;4878993;29;2300;-59
2023/06/10 17:26:47;;;;;;;;;;;;;;;;;;4878443;29;2530;-53
2023/06/10 17:29:14;;;;;;;;;;;;;;;;;;4878961;29;1933;-55
2023/06/10 17:31:41;;;;;;;;;;;;;;;;;;4892639;29;2120;-56
2023/06/10 17:34:08;;;;;;;;;;;;;;;;;;4878417;29;2063;-56
2023/06/10 17:36:35;;;;;;;;;;;;;;;;;;4878539;29;1795;-56
2023/06/10 17:39:02;;;;;;;;;;;;;;;;;;4878582;29;2018;-53
2023/06/10 17:41:30;;;;;;;;;;;;;;;;;;4878588;29;2103;-56
2023/06/10 17:43:57;;;;;;;;;;;;;;;;;;4878204;29;1952;-55